Time;durP1;ratioP1;P1;durP2;ratioP2;P2;SDS_P1;SDS_P2;PMS_P1;PMS_P2;Temp;Humidity;BMP_temperature;BMP_pressure;BME280_temperature;BME280_humidity;BME280_pressure;Samples;Min_cycle;Max_cycle;Signal;HPM_P1;HPM_P2
2022/10/30 00:01:29;;;;;;;15.70;8.18;;;;;;;13.57;47.43;100425.81;5051539;28;20067;-37
2022/10/30 00:03:56;;;;;;;10.70;6.15;;;;;;;13.69;46.91;100426.03;5051565;28;20577;-37
2022/10/30 00:06:22;;;;;;;14.40;7.25;;;;;;;13.78;46.69;100416.75;5051695;28;20511;-37
2022/10/30 00:08:47;;;;;;;10.30;6.60;;;;;;;13.51;47.25;100415.16;5051676;28;20025;-37
2022/10/30 00:11:13;;;;;;;12.40;6.45;;;;;;;13.45;47.61;100416.78;5051448;28;20036;-37
2022/10/30 00:13:38;;;;;;;12.20;8.13;;;;;;;13.44;47.86;100418.66;5051763;28;20025;-37
2022/10/30 00:16:06;;;;;;;12.13;8.10;;;;;;;13.55;47.79;100424.41;5051032;28;20407;-36
2022/10/30 00:18:34;;;;;;;14.65;8.05;;;;;;;13.25;48.57;100419.41;5051365;28;20054;-37
2022/10/30 00:21:08;;;;;;;13.07;7.80;;;;;;;12.99;49.13;100409.53;5051369;28;20074;-37
2022/10/30 00:23:33;;;;;;;14.32;7.60;;;;;;;12.92;49.46;100409.50;5050952;28;20060;-37
2022/10/30 00:26:04;;;;;;;13.77;7.93;;;;;;;13.02;49.74;100411.78;5051104;28;20029;-37
2022/10/30 00:28:30;;;;;;;12.25;7.15;;;;;;;13.20;48.72;100403.19;5051131;28;20025;-37
2022/10/30 00:30:58;;;;;;;13.55;7.38;;;;;;;13.08;49.02;100403.78;5050613;28;20028;-37
2022/10/30 00:33:24;;;;;;;10.07;6.95;;;;;;;13.13;48.88;100402.34;5051178;28;20029;-37
2022/10/30 00:35:49;;;;;;;14.68;6.90;;;;;;;13.06;48.86;100402.31;5050740;28;20583;-36
2022/10/30 00:38:15;;;;;;;13.70;7.43;;;;;;;12.79;49.02;100404.13;5050888;28;20029;-37
2022/10/30 00:40:40;;;;;;;16.10;7.72;;;;;;;12.85;48.87;100396.16;5050940;28;20075;-37
2022/10/30 00:43:30;;;;;;;12.30;7.80;;;;;;;12.73;49.74;100387.06;5050804;28;20021;-37
2022/10/30 00:45:59;;;;;;;17.60;9.45;;;;;;;12.77;49.31;100379.47;5050776;28;20025;-37
2022/10/30 00:48:25;;;;;;;16.77;9.15;;;;;;;12.71;49.76;100375.78;5050636;28;20029;-37
2022/10/30 00:50:52;;;;;;;18.40;9.10;;;;;;;12.71;49.48;100378.44;5050706;28;20029;-37
2022/10/30 00:53:20;;;;;;;12.85;8.40;;;;;;;12.30;50.19;100384.69;5050467;28;20108;-37
2022/10/30 00:55:50;;;;;;;12.82;8.38;;;;;;;12.67;49.67;100385.22;5050689;28;20112;-37
2022/10/30 00:58:20;;;;;;;16.52;8.55;;;;;;;12.73;49.41;100383.59;5050586;28;20036;-37
2022/10/30 01:00:50;;;;;;;11.18;7.25;;;;;;;12.73;49.00;100372.91;5050771;28;20029;-37
2022/10/30 01:03:18;;;;;;;16.10;7.90;;;;;;;12.68;49.11;100378.88;5050169;28;20492;-36
2022/10/30 01:05:46;;;;;;;13.13;7.70;;;;;;;12.56;50.11;100377.78;5050592;28;20028;-36
2022/10/30 01:08:12;;;;;;;14.53;7.60;;;;;;;12.57;50.48;100376.78;5050411;28;20021;-36
2022/10/30 01:10:38;;;;;;;12.52;7.55;;;;;;;12.35;50.93;100384.91;5050521;28;20274;-36
2022/10/30 01:13:04;;;;;;;11.05;7.15;;;;;;;12.34;50.89;100377.94;5050197;28;20465;-36
2022/10/30 01:15:38;;;;;;;16.40;8.02;;;;;;;12.40;50.45;100378.97;5050236;28;20021;-36
2022/10/30 01:18:09;;;;;;;14.52;8.40;;;;;;;12.62;50.20;100368.97;5050145;28;20422;-36
2022/10/30 01:20:46;;;;;;;13.60;8.10;;;;;;;12.51;49.63;100365.06;5050046;28;20029;-37
2022/10/30 01:23:48;;;;;;;11.18;7.20;;;;;;;12.62;49.84;100361.78;5049779;28;20053;-36
2022/10/30 01:26:20;;;;;;;;;;;;;;;12.76;49.22;100362.63;5050959;28;20404;-37
2022/10/30 01:28:48;;;;;;;;;;;;;;;12.71;49.79;100375.78;5050561;28;19940;-36
2022/10/30 01:31:25;;;;;;;13.70;7.70;;;;;;;12.51;49.80;100362.38;5049707;28;19916;-36
2022/10/30 01:34:09;;;;;;;13.73;7.10;;;;;;;12.28;50.51;100368.03;5050221;28;20025;-37
2022/10/30 01:36:46;;;;;;;10.55;6.97;;;;;;;12.12;50.90;100363.88;5049639;28;20509;-37
2022/10/30 01:39:27;;;;;;;11.75;6.68;;;;;;;12.13;50.52;100362.84;5049409;28;20082;-37
2022/10/30 01:41:53;;;;;;;11.70;7.68;;;;;;;12.36;49.88;100357.19;5048090;28;20127;-37
2022/10/30 01:44:29;;;;;;;11.82;7.28;;;;;;;12.30;50.31;100360.66;5049214;28;20024;-38
2022/10/30 01:47:21;;;;;;;10.38;7.20;;;;;;;12.16;50.63;100356.28;5048562;28;20614;-37
2022/10/30 01:50:04;;;;;;;10.38;6.70;;;;;;;12.25;50.93;100363.91;5049849;28;20036;-37
2022/10/30 01:52:48;;;;;;;15.57;7.30;;;;;;;12.19;50.79;100350.56;5049403;28;20017;-37
2022/10/30 01:55:52;;;;;;;9.90;6.32;;;;;;;12.35;50.54;100342.19;5049818;28;20028;-37
2022/10/30 01:58:29;;;;;;;10.90;6.85;;;;;;;12.27;50.95;100339.72;5050089;28;20118;-37
2022/10/30 02:00:57;;;;;;;15.20;8.52;;;;;;;12.20;50.98;100333.53;5049606;28;20095;-37
2022/10/30 02:03:25;;;;;;;13.85;8.75;;;;;;;12.12;50.30;100346.00;5049520;28;20112;-37
2022/10/30 02:05:51;;;;;;;12.85;8.63;;;;;;;11.91;50.87;100328.25;5049153;28;20017;-37
2022/10/30 02:08:17;;;;;;;11.23;7.68;;;;;;;11.80;51.54;100338.63;5049736;28;20036;-37
2022/10/30 02:10:46;;;;;;;12.88;7.95;;;;;;;12.00;50.64;100334.25;5049081;28;20033;-37
2022/10/30 02:13:11;;;;;;;12.20;7.97;;;;;;;12.06;51.07;100338.00;5049492;28;20100;-37
2022/10/30 02:15:37;;;;;;;10.98;7.20;;;;;;;12.06;51.19;100328.13;5049420;28;20033;-37
2022/10/30 02:18:03;;;;;;;9.63;6.60;;;;;;;11.71;51.25;100320.16;5048455;28;20105;-37
2022/10/30 02:20:29;;;;;;;12.13;6.82;;;;;;;11.79;51.36;100326.34;5049048;28;20113;-37
2022/10/30 02:22:55;;;;;;;11.60;6.70;;;;;;;11.82;51.51;100316.13;5048755;28;20140;-37
2022/10/30 02:25:21;;;;;;;9.80;6.45;;;;;;;12.01;51.07;100327.91;5049603;28;20467;-37
2022/10/30 02:27:46;;;;;;;13.77;7.25;;;;;;;12.03;51.17;100325.88;5049416;28;20035;-37
2022/10/30 02:30:12;;;;;;;11.05;7.05;;;;;;;12.02;51.43;100304.72;5049463;28;20060;-37
2022/10/30 02:32:38;;;;;;;12.85;7.68;;;;;;;11.93;51.32;100328.06;5049141;28;20059;-37
2022/10/30 02:35:04;;;;;;;10.60;6.97;;;;;;;11.90;52.15;100320.50;5049067;28;20126;-37
2022/10/30 02:37:31;;;;;;;11.18;6.50;;;;;;;11.81;52.39;100322.44;5049414;28;20090;-37
2022/10/30 02:39:57;;;;;;;10.38;7.05;;;;;;;11.96;51.34;100319.69;5049565;28;20029;-37
2022/10/30 02:42:23;;;;;;;12.60;6.97;;;;;;;12.03;51.02;100320.53;5049900;28;20029;-37
2022/10/30 02:44:48;;;;;;;10.98;7.18;;;;;;;12.05;50.99;100305.16;5049736;28;20103;-37
2022/10/30 02:47:14;;;;;;;11.15;7.00;;;;;;;11.89;52.21;100319.63;5050204;28;20032;-37
2022/10/30 02:49:40;;;;;;;12.07;7.00;;;;;;;11.44;52.46;100318.31;5050327;28;20028;-36
2022/10/30 02:52:07;;;;;;;12.32;7.05;;;;;;;11.54;52.15;100316.97;5049680;28;20098;-36
2022/10/30 02:54:33;;;;;;;10.60;7.05;;;;;;;11.40;53.16;100325.06;5053252;28;20053;-36
2022/10/30 02:56:59;;;;;;;16.55;6.75;;;;;;;11.50;53.34;100315.72;5053600;28;20135;-37
2022/10/30 02:59:24;;;;;;;12.10;6.60;;;;;;;11.54;52.74;100322.31;5053660;28;20040;-37
2022/10/30 03:01:50;;;;;;;14.73;7.22;;;;;;;11.58;52.37;100321.91;5053230;28;20476;-37
2022/10/30 03:04:15;;;;;;;11.85;6.40;;;;;;;11.48;52.82;100311.59;5053230;28;20064;-37
2022/10/30 03:06:40;;;;;;;14.18;7.03;;;;;;;11.45;53.33;100320.00;5053017;28;20149;-37
2022/10/30 03:09:06;;;;;;;11.63;6.90;;;;;;;11.55;53.01;100325.78;5053658;28;20074;-37
2022/10/30 03:11:33;;;;;;;17.05;7.10;;;;;;;11.59;52.47;100307.56;5052904;28;20025;-37
2022/10/30 03:13:58;;;;;;;12.52;6.70;;;;;;;11.38;53.71;100308.44;5053448;28;20025;-37
2022/10/30 03:16:28;;;;;;;13.60;6.43;;;;;;;11.54;53.30;100303.63;5053045;28;20036;-37
2022/10/30 03:18:54;;;;;;;11.48;6.90;;;;;;;11.52;52.87;100312.88;5053290;28;20033;-37
2022/10/30 03:21:21;;;;;;;11.32;6.55;;;;;;;11.51;53.34;100320.00;5053186;28;20037;-37
2022/10/30 03:23:49;;;;;;;10.77;6.88;;;;;;;11.49;52.97;100311.38;5053147;28;20061;-37
2022/10/30 03:26:15;;;;;;;12.50;6.80;;;;;;;11.61;53.08;100319.66;5053268;28;20021;-37
2022/10/30 03:28:40;;;;;;;12.93;6.88;;;;;;;11.63;52.77;100322.97;5052018;28;20021;-36
2022/10/30 03:31:11;;;;;;;12.23;6.38;;;;;;;11.57;52.88;100325.59;5053215;28;20028;-36
2022/10/30 03:33:37;;;;;;;10.57;7.05;;;;;;;11.54;52.32;100319.63;5053003;28;20033;-37
2022/10/30 03:36:04;;;;;;;10.73;6.82;;;;;;;11.52;53.44;100324.34;5052919;28;20021;-37
2022/10/30 03:38:29;;;;;;;12.57;7.05;;;;;;;11.53;52.82;100320.63;5052449;28;20079;-37
2022/10/30 03:40:55;;;;;;;10.32;6.72;;;;;;;11.41;53.79;100324.88;5052570;28;20032;-36
2022/10/30 03:43:21;;;;;;;12.70;6.65;;;;;;;11.17;54.69;100327.97;5052386;28;20033;-37
2022/10/30 03:45:48;;;;;;;11.00;6.57;;;;;;;11.17;54.26;100322.66;5052819;28;20072;-37
2022/10/30 03:48:14;;;;;;;15.57;6.88;;;;;;;11.25;53.55;100317.16;5052369;28;20036;-36
2022/10/30 03:50:39;;;;;;;11.15;6.68;;;;;;;11.20;54.27;100319.59;5052956;28;20025;-37
2022/10/30 03:53:05;;;;;;;11.85;6.70;;;;;;;11.15;54.18;100320.16;5052115;28;20434;-36
2022/10/30 03:55:30;;;;;;;18.73;7.60;;;;;;;11.19;53.83;100332.09;5052498;28;20479;-37
2022/10/30 03:57:55;;;;;;;13.10;7.65;;;;;;;11.25;53.57;100335.81;5052529;28;20074;-37
2022/10/30 04:00:21;;;;;;;13.98;7.57;;;;;;;11.13;53.48;100336.34;5052193;28;20111;-36
2022/10/30 04:02:48;;;;;;;12.15;7.22;;;;;;;11.20;52.89;100333.75;5052147;28;20024;-36
2022/10/30 04:05:21;;;;;;;10.85;7.35;;;;;;;11.14;54.19;100338.00;5051332;28;20385;-36
2022/10/30 04:07:47;;;;;;;12.73;7.20;;;;;;;11.19;52.98;100334.75;5052712;28;20037;-36
2022/10/30 04:10:13;;;;;;;13.90;7.50;;;;;;;11.11;53.64;100335.72;5051864;28;20104;-36
2022/10/30 04:12:39;;;;;;;14.38;7.30;;;;;;;10.98;53.02;100303.66;5051966;28;20029;-36
2022/10/30 04:15:07;;;;;;;13.38;7.22;;;;;;;11.23;52.83;100335.19;5051796;28;20040;-36
2022/10/30 04:17:33;;;;;;;12.82;7.88;;;;;;;11.20;52.45;100335.59;5052292;28;20036;-36
2022/10/30 04:19:58;;;;;;;14.05;7.53;;;;;;;11.10;53.65;100338.56;5051613;28;20033;-36
2022/10/30 04:22:24;;;;;;;9.77;7.10;;;;;;;11.05;53.60;100343.66;5052188;28;20029;-36
2022/10/30 04:24:49;;;;;;;17.67;7.80;;;;;;;10.59;54.24;100326.25;5051448;28;20132;-36
2022/10/30 04:27:15;;;;;;;13.77;7.80;;;;;;;10.44;55.29;100336.09;5051546;28;20070;-35
2022/10/30 04:29:41;;;;;;;12.93;7.95;;;;;;;10.69;54.92;100331.25;5051591;28;20090;-36
2022/10/30 04:32:07;;;;;;;15.63;8.15;;;;;;;10.86;54.60;100337.13;5051578;28;20119;-36
2022/10/30 04:34:32;;;;;;;14.55;7.28;;;;;;;10.74;54.64;100332.31;5051497;28;20163;-36
2022/10/30 04:36:58;;;;;;;11.52;7.57;;;;;;;10.81;54.17;100329.72;5051696;28;20177;-36
2022/10/30 04:39:23;;;;;;;13.82;7.78;;;;;;;10.85;54.39;100328.34;5051624;28;20099;-36
2022/10/30 04:41:49;;;;;;;13.57;8.00;;;;;;;10.74;54.56;100331.50;5050726;28;20032;-35
2022/10/30 04:44:14;;;;;;;12.85;7.53;;;;;;;10.81;54.18;100339.53;5051891;28;20510;-35
2022/10/30 04:46:39;;;;;;;12.48;7.40;;;;;;;10.89;53.81;100337.59;5051675;28;20434;-35
2022/10/30 04:49:05;;;;;;;12.80;7.68;;;;;;;10.89;53.77;100339.41;5051593;28;20032;-35
2022/10/30 04:51:30;;;;;;;13.68;7.07;;;;;;;10.89;53.55;100336.75;5051205;28;20017;-35
2022/10/30 04:53:57;;;;;;;13.30;7.30;;;;;;;10.95;53.67;100336.00;5051197;28;20032;-35
2022/10/30 04:56:23;;;;;;;12.60;7.13;;;;;;;11.01;53.84;100345.06;5051287;28;20024;-35
2022/10/30 04:58:48;;;;;;;13.25;7.63;;;;;;;11.00;54.38;100338.88;5051320;28;20405;-35
2022/10/30 05:01:14;;;;;;;12.77;6.68;;;;;;;10.88;54.54;100345.75;5050978;28;20047;-35
2022/10/30 05:03:39;;;;;;;12.75;7.60;;;;;;;11.00;53.90;100348.72;5051073;28;20042;-36
2022/10/30 05:06:12;;;;;;;12.13;6.35;;;;;;;11.02;54.21;100344.84;5051206;28;20020;-35
2022/10/30 05:08:37;;;;;;;14.68;7.50;;;;;;;11.23;53.13;100353.84;5051357;28;20046;-35
2022/10/30 05:11:04;;;;;;;17.02;8.45;;;;;;;11.46;52.57;100348.28;5051150;28;20531;-35
2022/10/30 05:13:29;;;;;;;15.48;8.90;;;;;;;11.64;52.31;100348.59;5050585;28;20108;-36
2022/10/30 05:15:55;;;;;;;15.52;7.43;;;;;;;11.65;53.30;100350.25;5050885;28;20116;-35
2022/10/30 05:18:20;;;;;;;16.30;7.40;;;;;;;12.06;51.84;100338.81;5050855;28;20108;-36
2022/10/30 05:20:46;;;;;;;13.60;7.38;;;;;;;12.28;51.89;100330.66;5051321;28;20043;-35
2022/10/30 05:23:12;;;;;;;16.65;8.43;;;;;;;12.40;51.00;100334.41;5050862;28;20052;-35
2022/10/30 05:25:37;;;;;;;12.75;8.40;;;;;;;12.61;50.41;100336.09;5050399;28;20047;-35
2022/10/30 05:28:05;;;;;;;13.43;7.85;;;;;;;13.01;50.22;100335.34;5050746;28;20030;-35
2022/10/30 05:30:32;;;;;;;23.10;12.73;;;;;;;13.41;49.07;100341.53;5050959;28;20025;-35
2022/10/30 05:33:05;;;;;;;17.75;9.98;;;;;;;13.67;48.90;100342.53;5050973;28;20075;-35
2022/10/30 05:35:33;;;;;;;14.00;8.48;;;;;;;13.93;47.57;100341.59;5050716;28;20021;-36
2022/10/30 05:37:59;;;;;;;12.15;7.32;;;;;;;14.11;47.55;100338.28;5050527;28;20087;-37
2022/10/30 05:40:25;;;;;;;10.95;7.15;;;;;;;14.49;46.69;100353.53;5051158;28;20108;-37
2022/10/30 05:42:51;;;;;;;11.80;6.45;;;;;;;14.60;46.74;100350.22;5051394;28;20423;-37
2022/10/30 05:45:17;;;;;;;14.30;5.80;;;;;;;15.09;45.49;100358.53;5051349;28;20025;-36
2022/10/30 05:47:43;;;;;;;8.40;5.40;;;;;;;15.49;44.50;100358.19;5050836;28;20081;-35
2022/10/30 05:50:11;;;;;;;11.88;5.30;;;;;;;15.61;44.92;100353.75;5050273;28;20025;-36
2022/10/30 05:52:36;;;;;;;11.65;5.22;;;;;;;15.87;46.22;100362.56;5050409;28;20025;-34
2022/10/30 05:55:02;;;;;;;26.42;14.70;;;;;;;16.51;43.22;100359.56;5050400;28;20021;-36
2022/10/30 05:57:28;;;;;;;17.08;10.35;;;;;;;16.89;41.72;100359.22;5049663;28;20013;-36
2022/10/30 05:59:54;;;;;;;13.55;8.23;;;;;;;17.32;41.34;100357.28;5050479;28;20029;-37
2022/10/30 06:02:20;;;;;;;19.67;12.77;;;;;;;17.61;40.81;100360.09;5050611;28;20051;-37
2022/10/30 06:04:45;;;;;;;12.55;6.15;;;;;;;17.81;40.60;100357.88;5050581;28;20524;-37
2022/10/30 06:07:11;;;;;;;7.18;4.40;;;;;;;17.98;39.71;100355.28;5050162;28;20086;-37
2022/10/30 06:09:36;;;;;;;7.38;4.60;;;;;;;18.29;39.14;100355.91;5050890;28;20021;-37
2022/10/30 06:12:02;;;;;;;7.60;4.85;;;;;;;18.18;38.71;100349.50;5050558;28;20025;-37
2022/10/30 06:14:27;;;;;;;7.25;4.65;;;;;;;18.45;38.65;100351.63;5050886;28;20358;-36
2022/10/30 06:16:53;;;;;;;10.05;4.70;;;;;;;18.54;38.14;100352.88;5050323;28;20354;-37
2022/10/30 06:19:18;;;;;;;7.90;4.35;;;;;;;18.33;38.58;100348.97;5050416;28;20029;-37
2022/10/30 06:21:44;;;;;;;9.70;4.65;;;;;;;19.01;36.85;100349.97;5048840;28;20036;-36
2022/10/30 06:24:09;;;;;;;8.30;4.20;;;;;;;19.45;35.96;100363.59;5042686;28;20058;-36
2022/10/30 06:26:34;;;;;;;7.13;4.00;;;;;;;19.83;35.27;100359.31;5030565;28;20029;-36
2022/10/30 06:29:00;;;;;;;6.53;4.13;;;;;;;20.14;34.15;100358.88;5042037;28;20441;-36
2022/10/30 06:31:25;;;;;;;6.75;4.53;;;;;;;20.48;34.76;100352.22;5053008;28;20032;-36
2022/10/30 06:33:51;;;;;;;9.07;5.80;;;;;;;20.67;34.31;100355.44;5047696;28;20025;-36
2022/10/30 06:36:17;;;;;;;8.40;4.25;;;;;;;21.27;34.25;100352.69;5053663;28;20633;-35
2022/10/30 06:38:42;;;;;;;9.63;3.90;;;;;;;21.72;32.79;100340.53;5053332;28;20054;-36
2022/10/30 06:41:08;;;;;;;8.32;3.90;;;;;;;21.95;32.67;100342.03;5053347;28;20047;-36
2022/10/30 06:43:34;;;;;;;7.00;3.85;;;;;;;22.39;31.87;100338.09;5052860;28;20049;-36
2022/10/30 06:45:59;;;;;;;6.80;4.00;;;;;;;22.68;30.53;100340.34;5052670;28;20021;-36
2022/10/30 06:48:25;;;;;;;10.77;3.97;;;;;;;23.02;30.02;100340.66;5052901;28;20020;-35
2022/10/30 06:50:54;;;;;;;5.35;3.50;;;;;;;23.22;30.00;100326.25;5051970;28;20503;-36
2022/10/30 06:53:20;;;;;;;7.38;3.97;;;;;;;23.48;29.95;100332.47;5052554;28;20108;-36
2022/10/30 06:55:59;;;;;;;7.82;4.13;;;;;;;23.73;29.07;100330.78;5053095;28;20374;-35
2022/10/30 06:58:25;;;;;;;5.97;3.80;;;;;;;23.62;28.18;100330.78;5033236;28;20079;-36
2022/10/30 07:00:51;;;;;;;5.80;3.90;;;;;;;23.81;28.66;100332.94;5032650;28;20631;-36
2022/10/30 07:03:17;;;;;;;7.13;4.20;;;;;;;24.19;27.88;100342.28;5051768;28;20025;-36
2022/10/30 07:05:43;;;;;;;7.85;4.20;;;;;;;24.45;27.97;100344.88;5052438;28;20048;-35
2022/10/30 07:08:08;;;;;;;6.78;4.05;;;;;;;24.67;27.84;100341.75;5052341;28;20086;-36
2022/10/30 07:10:34;;;;;;;7.75;3.78;;;;;;;24.58;27.34;100338.81;5052507;28;20090;-37
2022/10/30 07:12:59;;;;;;;11.05;4.15;;;;;;;24.48;27.49;100330.69;5052003;28;20481;-36
2022/10/30 07:15:25;;;;;;;10.18;3.95;;;;;;;25.01;26.66;100332.78;5052160;28;20029;-36
2022/10/30 07:17:57;;;;;;;6.55;3.60;;;;;;;24.73;26.88;100328.91;5052172;28;20025;-37
2022/10/30 07:20:24;;;;;;;8.63;5.25;;;;;;;25.23;26.82;100326.91;5051824;28;20056;-36
2022/10/30 07:22:49;;;;;;;10.40;4.57;;;;;;;25.40;26.66;100329.19;5051800;28;20053;-36
2022/10/30 07:25:15;;;;;;;21.67;11.73;;;;;;;25.33;26.47;100324.06;5051014;28;20021;-34
2022/10/30 07:27:42;;;;;;;11.48;5.60;;;;;;;25.42;26.59;100310.63;5052238;28;20033;-36
2022/10/30 07:30:08;;;;;;;8.20;4.07;;;;;;;25.26;26.87;100304.53;5052830;28;20131;-36
2022/10/30 07:32:34;;;;;;;7.78;4.65;;;;;;;25.79;25.76;100305.59;5052666;28;20037;-36
2022/10/30 07:34:59;;;;;;;11.77;4.00;;;;;;;26.18;25.38;100304.53;5052991;28;20039;-36
2022/10/30 07:37:25;;;;;;;21.42;13.05;;;;;;;26.07;25.43;100307.44;5052296;28;20033;-36
2022/10/30 07:39:50;;;;;;;7.40;4.63;;;;;;;26.29;25.09;100303.28;5051220;28;20457;-38
2022/10/30 07:42:15;;;;;;;9.45;5.00;;;;;;;26.25;25.50;100302.28;5052300;28;20021;-37
2022/10/30 07:44:41;;;;;;;13.07;5.20;;;;;;;26.03;25.20;100298.22;5052206;28;20033;-36
2022/10/30 07:47:06;;;;;;;10.93;4.35;;;;;;;26.12;25.65;100296.47;5037696;28;20033;-36
2022/10/30 07:49:31;;;;;;;10.27;3.78;;;;;;;25.97;25.75;100291.22;5037655;28;20115;-38
2022/10/30 07:51:57;;;;;;;12.35;5.47;;;;;;;26.30;25.37;100285.84;5031865;28;20025;-36
2022/10/30 07:54:22;;;;;;;6.90;4.82;;;;;;;26.04;25.45;100288.09;5032313;28;20033;-36
2022/10/30 07:56:48;;;;;;;8.25;5.22;;;;;;;26.12;26.01;100284.72;5032127;28;20455;-36
2022/10/30 07:59:13;;;;;;;8.63;4.50;;;;;;;26.36;25.88;100287.38;5032064;28;20030;-37
2022/10/30 08:01:38;;;;;;;13.10;8.90;;;;;;;26.76;25.04;100281.59;5043797;28;20520;-37
2022/10/30 08:04:04;;;;;;;13.27;6.78;;;;;;;26.32;25.77;100287.16;5051648;28;20629;-36
2022/10/30 08:06:29;;;;;;;9.45;5.10;;;;;;;25.80;26.61;100274.47;5051754;28;20021;-36
2022/10/30 08:08:55;;;;;;;10.05;6.07;;;;;;;26.27;26.14;100278.22;5039236;28;20456;-46
2022/10/30 08:11:20;;;;;;;15.35;8.15;;;;;;;25.62;26.58;100260.53;5050281;28;20052;-36
2022/10/30 08:13:46;;;;;;;9.57;5.57;;;;;;;25.71;26.78;100260.72;5051483;28;20036;-35
2022/10/30 08:16:11;;;;;;;7.82;4.57;;;;;;;26.08;26.37;100259.97;5051760;28;20074;-35
2022/10/30 08:18:40;;;;;;;11.80;5.00;;;;;;;25.94;27.32;100257.16;5051629;28;20130;-36
2022/10/30 08:21:05;;;;;;;8.63;4.50;;;;;;;26.16;26.45;100258.50;5051879;28;20039;-37
2022/10/30 08:23:31;;;;;;;8.43;4.10;;;;;;;26.24;26.33;100260.56;5051408;28;20049;-37
2022/10/30 08:25:59;;;;;;;7.20;4.40;;;;;;;26.42;26.26;100248.00;5051258;28;20101;-36
2022/10/30 08:28:24;;;;;;;9.52;4.18;;;;;;;26.80;26.59;100242.47;5051987;28;20129;-36
2022/10/30 08:30:50;;;;;;;6.10;3.85;;;;;;;27.25;25.27;100240.03;5051453;28;20032;-37
2022/10/30 08:33:15;;;;;;;5.63;3.90;;;;;;;27.40;25.15;100241.66;5051500;28;20033;-37
2022/10/30 08:35:49;;;;;;;9.65;4.18;;;;;;;27.38;24.89;100238.44;5051418;28;20117;-37
2022/10/30 08:38:15;;;;;;;9.43;4.90;;;;;;;27.68;24.90;100247.09;5051521;28;20025;-38
2022/10/30 08:40:40;;;;;;;6.97;4.07;;;;;;;27.07;25.26;100233.53;5051263;28;20098;-35
2022/10/30 08:43:07;;;;;;;5.53;3.80;;;;;;;26.75;26.12;100237.13;5049495;28;20123;-36
2022/10/30 08:45:33;;;;;;;8.88;3.97;;;;;;;27.21;26.04;100233.53;5051212;28;20496;-36
2022/10/30 08:47:59;;;;;;;5.13;3.78;;;;;;;27.34;25.83;100236.59;5049537;28;20090;-36
2022/10/30 08:50:25;;;;;;;9.38;4.25;;;;;;;27.56;25.44;100233.97;5049313;28;20033;-36
2022/10/30 08:52:51;;;;;;;8.98;4.05;;;;;;;27.51;25.05;100239.53;5044209;28;20384;-36
2022/10/30 08:55:16;;;;;;;8.05;5.10;;;;;;;27.02;25.29;100230.09;5051861;28;20503;-37
2022/10/30 08:57:42;;;;;;;10.90;4.63;;;;;;;27.34;25.30;100231.97;5051745;28;20035;-36
2022/10/30 09:00:08;;;;;;;9.50;4.10;;;;;;;27.50;24.46;100229.72;5051800;28;20365;-36
2022/10/30 09:02:35;;;;;;;11.02;6.97;;;;;;;27.46;25.93;100223.25;5051609;28;20029;-37
2022/10/30 09:05:01;;;;;;;9.68;4.32;;;;;;;28.02;25.39;100218.50;5050719;28;20029;-37
2022/10/30 09:07:26;;;;;;;10.70;3.80;;;;;;;27.94;24.90;100211.84;5051190;28;20031;-37
2022/10/30 09:09:51;;;;;;;75.00;56.90;;;;;;;27.69;24.91;100211.25;5051552;28;20079;-36
2022/10/30 09:12:17;;;;;;;36.78;23.63;;;;;;;27.57;25.02;100197.31;5049653;28;20063;-37
2022/10/30 09:14:42;;;;;;;11.73;6.10;;;;;;;27.20;26.45;100207.31;5032922;28;20033;-36
2022/10/30 09:17:08;;;;;;;9.35;5.47;;;;;;;27.29;25.43;100202.81;5041464;28;20032;-35
2022/10/30 09:19:34;;;;;;;10.73;5.47;;;;;;;27.52;27.51;100199.34;5031004;28;20028;-36
2022/10/30 09:21:59;;;;;;;7.32;3.97;;;;;;;27.66;27.11;100194.66;5030697;28;20512;-36
2022/10/30 09:24:25;;;;;;;6.15;3.85;;;;;;;27.76;25.30;100191.72;5036618;28;20462;-36
2022/10/30 09:26:50;;;;;;;13.63;6.30;;;;;;;28.11;24.78;100183.03;5050456;28;20603;-37
2022/10/30 09:29:15;;;;;;;5.82;3.95;;;;;;;27.67;25.74;100183.41;5051208;28;20024;-37
2022/10/30 09:31:41;;;;;;;5.50;3.30;;;;;;;27.50;25.98;100175.06;5051018;28;20029;-36
2022/10/30 09:34:06;;;;;;;4.28;3.28;;;;;;;27.71;26.37;100169.16;5050917;28;20105;-37
2022/10/30 09:36:32;;;;;;;5.20;3.47;;;;;;;28.25;25.73;100167.34;5050854;28;20052;-37
2022/10/30 09:38:58;;;;;;;7.28;3.80;;;;;;;28.65;25.36;100164.69;5051371;28;20454;-37
2022/10/30 09:41:32;;;;;;;5.38;3.00;;;;;;;29.05;24.28;100161.97;5050680;28;20362;-44
2022/10/30 09:44:01;;;;;;;6.80;3.00;;;;;;;29.14;24.24;100164.78;5048380;28;20044;-44
2022/10/30 09:46:39;;;;;;;3.38;2.88;;;;;;;29.24;24.12;100148.84;5043431;28;20548;-43
2022/10/30 09:49:23;;;;;;;4.25;3.05;;;;;;;29.42;23.16;100151.63;5050504;28;20060;-45
2022/10/30 09:52:07;;;;;;;6.25;3.17;;;;;;;29.21;23.74;100151.44;5050275;28;20025;-45
2022/10/30 09:54:54;;;;;;;4.32;2.83;;;;;;;29.61;23.53;100140.34;5050776;28;20029;-36
2022/10/30 09:57:36;;;;;;;6.38;3.03;;;;;;;29.89;22.72;100132.66;5050521;28;20025;-36
2022/10/30 10:00:05;;;;;;;5.75;2.90;;;;;;;30.04;22.84;100134.06;5050470;28;20020;-36
2022/10/30 10:02:59;;;;;;;5.95;2.80;;;;;;;29.82;22.01;100143.28;5049906;28;20151;-43
2022/10/30 10:05:31;;;;;;;4.32;2.80;;;;;;;29.71;22.66;100128.25;5051091;28;20022;-42
2022/10/30 10:08:19;;;;;;;11.82;2.83;;;;;;;29.54;22.37;100124.38;5050774;28;20021;-44
2022/10/30 10:10:52;;;;;;;5.85;2.90;;;;;;;29.36;22.41;100123.56;5048087;28;20021;-42
2022/10/30 10:13:51;;;;;;;6.00;2.90;;;;;;;29.66;22.47;100122.94;5048376;28;20500;-43
2022/10/30 10:16:19;;;;;;;5.93;3.00;;;;;;;29.92;22.47;100122.94;5050547;28;20068;-43
2022/10/30 10:19:04;;;;;;;6.57;3.00;;;;;;;29.81;21.94;100116.97;5050367;28;20021;-41
2022/10/30 10:21:34;;;;;;;3.50;2.90;;;;;;;29.52;25.72;100109.38;5043482;28;20048;-41
2022/10/30 10:24:02;;;;;;;5.82;3.58;;;;;;;29.42;23.97;100105.03;5050417;28;20070;-42
2022/10/30 10:26:49;;;;;;;5.85;2.80;;;;;;;29.52;23.16;100098.41;5050363;28;20058;-40
2022/10/30 10:29:33;;;;;;;5.80;3.70;;;;;;;29.99;23.84;100096.63;5050534;28;20028;-40
2022/10/30 10:31:58;;;;;;;6.20;3.80;;;;;;;29.91;23.69;100083.75;5050680;28;20074;-42
2022/10/30 10:34:41;;;;;;;4.45;3.25;;;;;;;29.29;22.42;100084.84;5050610;28;20025;-42
2022/10/30 10:37:35;;;;;;;11.77;3.40;;;;;;;29.75;23.66;100060.69;5050263;28;20039;-41
2022/10/30 10:40:19;;;;;;;6.80;3.63;;;;;;;29.76;22.52;100065.88;5050445;28;20500;-42
2022/10/30 10:43:05;;;;;;;6.18;3.25;;;;;;;29.77;21.67;100058.44;5050367;28;20040;-42
2022/10/30 10:45:47;;;;;;;3.42;2.90;;;;;;;29.66;23.06;100057.91;5028860;28;20090;-42
2022/10/30 10:48:34;;;;;;;8.82;3.10;;;;;;;29.43;21.44;100049.06;5049181;28;20059;-43
2022/10/30 10:51:31;;;;;;;6.43;2.72;;;;;;;29.76;21.68;100052.16;5049947;28;20036;-42
2022/10/30 10:54:02;;;;;;;3.85;2.40;;;;;;;30.04;20.61;100038.03;5049571;28;20063;-44
2022/10/30 10:56:40;;;;;;;3.40;2.70;;;;;;;30.43;20.47;100041.66;5049903;28;20357;-36
2022/10/30 10:59:15;;;;;;;3.63;2.63;;;;;;;30.89;20.46;100042.69;5049644;28;20021;-36
2022/10/30 11:01:47;;;;;;;3.63;2.70;;;;;;;31.15;19.82;100034.31;5049924;28;20686;-36
2022/10/30 11:04:35;;;;;;;2.80;2.13;;;;;;;31.04;19.69;100029.56;5048665;28;20098;-37
2022/10/30 11:07:24;;;;;;;94.57;68.07;;;;;;;30.82;19.81;100025.94;5049418;28;20051;-36
2022/10/30 11:09:52;;;;;;;11.82;7.30;;;;;;;31.01;19.68;100020.00;5049596;28;20040;-37
2022/10/30 11:12:30;;;;;;;4.75;2.47;;;;;;;31.20;19.54;100022.28;5050087;28;20029;-38
2022/10/30 11:15:05;;;;;;;7.47;2.08;;;;;;;30.76;19.71;100019.81;5052344;28;20048;-38
2022/10/30 11:17:41;;;;;;;4.93;2.35;;;;;;;30.90;19.47;100013.31;5053676;28;20106;-36
2022/10/30 11:20:30;;;;;;;4.97;2.28;;;;;;;30.58;19.91;100001.84;5053516;28;20036;-41
2022/10/30 11:22:55;;;;;;;6.43;2.60;;;;;;;30.75;20.20;100007.25;5053302;28;20498;-42
2022/10/30 11:25:23;;;;;;;3.90;2.08;;;;;;;30.78;19.93;100003.00;5053397;28;20036;-42
2022/10/30 11:27:54;;;;;;;5.10;2.58;;;;;;;30.75;19.58;100003.69;5053464;28;20029;-42